Time;durP1;ratioP1;P1;durP2;ratioP2;P2;SDS_P1;SDS_P2;PMS_P1;PMS_P2;Temp;Humidity;BMP_temperature;BMP_pressure;BME280_temperature;BME280_humidity;BME280_pressure;Samples;Min_cycle;Max_cycle;Signal;HPM_P1;HPM_P2
2024/01/27 02:02:31;;;;;;;3.72;2.58;;;;;;;;;;4924400;23;20241;-85
2024/01/27 02:05:00;;;;;;;5.43;3.35;;;;;;;;;;4923318;29;20642;-85
2024/01/27 02:07:28;;;;;;;4.45;3.08;;;;;;;;;;4926069;29;20209;-85
2024/01/27 02:09:56;;;;;;;4.22;3.38;;;;;;;;;;4921227;29;20221;-85
2024/01/27 02:12:25;;;;;;;11.38;3.33;;;;;;;;;;4907701;29;20221;-85
2024/01/27 02:14:53;;;;;;;11.00;4.35;;;;;;;;;;4936485;29;20255;-85
2024/01/27 02:17:21;;;;;;;7.47;3.38;;;;;;;;;;4936566;29;20261;-85
2024/01/27 02:19:51;;;;;;;3.92;3.00;;;;;;;;;;4930335;29;20230;-85
2024/01/27 02:22:19;;;;;;;14.57;4.07;;;;;;;;;;4921626;29;20221;-85
2024/01/27 02:24:49;;;;;;;3.72;3.38;;;;;;;;;;4919135;29;20204;-86
2024/01/27 02:27:17;;;;;;;9.10;3.70;;;;;;;;;;4936174;29;20257;-86
2024/01/27 02:29:46;;;;;;;6.53;3.50;;;;;;;;;;4935798;29;20244;-85
2024/01/27 02:32:16;;;;;;;4.07;3.67;;;;;;;;;;4927682;29;20208;-85
2024/01/27 02:34:44;;;;;;;7.53;3.88;;;;;;;;;;4919154;29;20240;-85
2024/01/27 02:37:13;;;;;;;11.77;5.30;;;;;;;;;;4937192;29;20225;-85
2024/01/27 02:39:41;;;;;;;6.55;3.88;;;;;;;;;;4923761;29;20241;-85
2024/01/27 02:42:13;;;;;;;7.97;3.78;;;;;;;;;;4920224;29;20232;-86
2024/01/27 02:44:42;;;;;;;5.07;3.05;;;;;;;;;;4908313;29;20226;-85
2024/01/27 02:47:10;;;;;;;3.88;3.08;;;;;;;;;;4937756;29;20205;-86
2024/01/27 02:49:38;;;;;;;7.22;3.50;;;;;;;;;;4922405;29;20240;-85
2024/01/27 02:52:06;;;;;;;7.38;3.45;;;;;;;;;;4939313;29;20253;-85
2024/01/27 02:54:35;;;;;;;7.60;3.63;;;;;;;;;;4939050;29;20252;-85
2024/01/27 02:57:03;;;;;;;8.25;3.40;;;;;;;;;;4916547;29;20579;-85
2024/01/27 02:59:33;;;;;;;5.55;4.22;;;;;;;;;;4938767;29;20233;-85
2024/01/27 03:02:01;;;;;;;7.40;4.22;;;;;;;;;;4936397;29;20250;-86
2024/01/27 03:04:30;;;;;;;6.93;4.03;;;;;;;;;;4930531;29;20214;-85
2024/01/27 03:06:58;;;;;;;6.38;3.47;;;;;;;;;;4942025;29;20221;-85
2024/01/27 03:09:26;;;;;;;12.70;4.38;;;;;;;;;;4938962;29;20257;-85
2024/01/27 03:11:55;;;;;;;6.18;4.13;;;;;;;;;;4940283;29;20217;-85
2024/01/27 03:14:23;;;;;;;4.90;4.13;;;;;;;;;;4939822;29;20232;-86
2024/01/27 03:16:53;;;;;;;8.77;4.40;;;;;;;;;;4917183;29;20206;-85
2024/01/27 03:19:21;;;;;;;11.52;4.53;;;;;;;;;;4931172;29;20214;-85
2024/01/27 03:21:50;;;;;;;7.15;3.78;;;;;;;;;;4920564;29;20229;-86
2024/01/27 03:24:18;;;;;;;7.05;3.80;;;;;;;;;;4911284;29;20206;-85
2024/01/27 03:26:46;;;;;;;8.32;4.53;;;;;;;;;;4925191;29;20229;-84
2024/01/27 03:29:15;;;;;;;6.50;3.97;;;;;;;;;;4928204;29;20242;-84
2024/01/27 03:31:43;;;;;;;4.47;4.07;;;;;;;;;;4926689;29;20265;-85
2024/01/27 03:34:14;;;;;;;9.35;3.97;;;;;;;;;;4924202;29;20210;-85
2024/01/27 03:36:42;;;;;;;8.52;4.65;;;;;;;;;;4935302;29;20253;-84
2024/01/27 03:39:10;;;;;;;9.40;4.22;;;;;;;;;;4918401;29;20228;-85
2024/01/27 03:41:38;;;;;;;6.45;4.55;;;;;;;;;;4936600;29;20224;-84
2024/01/27 03:44:07;;;;;;;7.70;5.15;;;;;;;;;;4925876;29;20230;-84
2024/01/27 03:46:36;;;;;;;7.43;4.88;;;;;;;;;;4923262;29;20200;-84
2024/01/27 03:49:04;;;;;;;5.75;4.18;;;;;;;;;;4939021;29;20229;-84
2024/01/27 03:51:34;;;;;;;7.20;4.45;;;;;;;;;;4939155;29;20240;-84
2024/01/27 03:54:02;;;;;;;13.48;5.57;;;;;;;;;;4934005;29;20230;-85
2024/01/27 03:56:31;;;;;;;5.25;4.30;;;;;;;;;;4920070;29;20206;-84
2024/01/27 03:58:59;;;;;;;8.73;4.63;;;;;;;;;;4917759;29;20245;-84
2024/01/27 04:01:27;;;;;;;6.05;4.22;;;;;;;;;;4903701;29;20241;-84
2024/01/27 04:03:56;;;;;;;6.28;4.07;;;;;;;;;;4935469;29;20229;-85
2024/01/27 04:06:24;;;;;;;10.07;5.00;;;;;;;;;;4938508;29;20249;-84
2024/01/27 04:08:57;;;;;;;9.90;4.72;;;;;;;;;;4928493;29;20214;-85
2024/01/27 04:11:29;;;;;;;8.00;4.90;;;;;;;;;;4919916;29;20209;-85
2024/01/27 04:13:57;;;;;;;10.65;6.35;;;;;;;;;;4931745;29;20238;-85
2024/01/27 04:16:25;;;;;;;6.88;4.38;;;;;;;;;;4920848;29;20229;-85
2024/01/27 04:18:54;;;;;;;11.55;5.30;;;;;;;;;;4921403;29;20225;-85
2024/01/27 04:21:22;;;;;;;8.60;5.00;;;;;;;;;;4920335;29;20222;-85
2024/01/27 04:23:50;;;;;;;18.83;4.75;;;;;;;;;;4909200;29;20257;-85
2024/01/27 04:26:20;;;;;;;5.35;4.35;;;;;;;;;;4927283;29;20230;-85
2024/01/27 04:28:49;;;;;;;14.30;5.40;;;;;;;;;;4919696;29;20225;-85
2024/01/27 04:31:17;;;;;;;4.88;4.00;;;;;;;;;;4905822;29;20229;-85
2024/01/27 04:33:45;;;;;;;9.00;5.05;;;;;;;;;;4921629;29;20248;-85
2024/01/27 04:36:28;;;;;;;10.73;4.72;;;;;;;;;;4920056;29;20214;-85
2024/01/27 04:38:56;;;;;;;13.00;4.97;;;;;;;;;;4905663;29;20197;-85
2024/01/27 04:41:26;;;;;;;8.35;4.45;;;;;;;;;;4924659;29;20193;-85
2024/01/27 04:43:56;;;;;;;13.18;4.45;;;;;;;;;;4939649;29;20233;-85
2024/01/27 04:46:24;;;;;;;11.10;4.80;;;;;;;;;;4939308;29;20189;-85
2024/01/27 04:48:52;;;;;;;10.02;4.53;;;;;;;;;;4937982;29;20248;-84
2024/01/27 04:51:20;;;;;;;10.93;5.03;;;;;;;;;;4937118;29;20287;-84
2024/01/27 04:53:48;;;;;;;10.48;4.25;;;;;;;;;;4929974;29;20883;-85
2024/01/27 04:56:18;;;;;;;8.30;3.67;;;;;;;;;;4922257;29;20264;-85
2024/01/27 04:58:48;;;;;;;8.68;5.30;;;;;;;;;;4904512;29;20245;-85
2024/01/27 05:01:16;;;;;;;9.02;3.95;;;;;;;;;;4918412;29;20234;-85
2024/01/27 05:03:44;;;;;;;7.80;4.22;;;;;;;;;;4920017;29;20224;-84
2024/01/27 05:06:13;;;;;;;24.00;4.50;;;;;;;;;;4920229;29;20225;-84
2024/01/27 05:08:41;;;;;;;11.30;5.10;;;;;;;;;;4935063;29;20248;-83
2024/01/27 05:11:09;;;;;;;5.05;3.88;;;;;;;;;;4919026;29;20229;-84
2024/01/27 05:13:38;;;;;;;13.30;3.63;;;;;;;;;;4930254;29;20197;-85
2024/01/27 05:16:08;;;;;;;10.48;4.65;;;;;;;;;;4937506;29;20232;-84
2024/01/27 05:18:36;;;;;;;9.73;4.20;;;;;;;;;;4937099;29;20221;-85
2024/01/27 05:21:05;;;;;;;8.13;4.80;;;;;;;;;;4929026;29;20230;-85
2024/01/27 05:23:33;;;;;;;8.15;4.22;;;;;;;;;;4928661;29;20177;-85
2024/01/27 05:26:01;;;;;;;6.28;4.53;;;;;;;;;;4937157;29;20231;-85
2024/01/27 05:28:29;;;;;;;12.27;4.70;;;;;;;;;;4924148;29;20182;-85
2024/01/27 05:30:57;;;;;;;9.05;4.55;;;;;;;;;;4919374;29;20197;-84
2024/01/27 05:33:26;;;;;;;12.68;4.78;;;;;;;;;;4924433;29;20229;-85
2024/01/27 05:35:54;;;;;;;11.90;4.63;;;;;;;;;;4924964;29;20233;-83
2024/01/27 05:38:22;;;;;;;6.60;4.88;;;;;;;;;;4924678;29;20212;-85
2024/01/27 05:40:51;;;;;;;13.05;5.15;;;;;;;;;;4919795;29;20241;-86
2024/01/27 05:43:19;;;;;;;7.00;3.78;;;;;;;;;;4928263;29;20229;-83
2024/01/27 05:45:48;;;;;;;9.05;4.45;;;;;;;;;;4937317;29;20217;-83
2024/01/27 05:48:17;;;;;;;15.32;7.95;;;;;;;;;;4925634;29;20221;-84
2024/01/27 05:50:56;;;;;;;11.70;6.70;;;;;;;;;;4900829;29;20210;-86
2024/01/27 05:53:25;;;;;;;10.15;6.13;;;;;;;;;;4920231;29;20225;-86
2024/01/27 05:55:53;;;;;;;18.13;7.88;;;;;;;;;;4935247;29;22077;-84
2024/01/27 05:58:22;;;;;;;10.13;3.97;;;;;;;;;;4925151;29;20252;-84
2024/01/27 06:00:50;;;;;;;6.35;4.32;;;;;;;;;;4917981;29;20237;-85
2024/01/27 06:03:19;;;;;;;5.70;4.32;;;;;;;;;;4926623;29;20245;-86
2024/01/27 06:05:48;;;;;;;8.55;4.15;;;;;;;;;;4936756;29;20670;-85
2024/01/27 06:08:18;;;;;;;13.38;5.57;;;;;;;;;;4929294;29;20214;-85
2024/01/27 06:10:46;;;;;;;11.40;6.05;;;;;;;;;;4921721;29;20249;-83
2024/01/27 06:13:14;;;;;;;6.03;4.10;;;;;;;;;;4918371;29;20237;-84
2024/01/27 06:15:43;;;;;;;6.53;4.40;;;;;;;;;;4917732;29;20262;-84
2024/01/27 06:18:11;;;;;;;7.55;3.88;;;;;;;;;;4907203;29;20210;-85
2024/01/27 06:20:40;;;;;;;7.68;4.85;;;;;;;;;;4916487;29;20240;-84
2024/01/27 06:23:09;;;;;;;7.13;4.03;;;;;;;;;;4900233;29;20241;-84
2024/01/27 06:25:38;;;;;;;7.28;3.88;;;;;;;;;;4925694;29;20201;-84
2024/01/27 06:28:07;;;;;;;5.65;3.58;;;;;;;;;;4933252;29;20225;-85
2024/01/27 06:30:35;;;;;;;13.43;4.50;;;;;;;;;;4934792;29;20200;-84
2024/01/27 06:33:03;;;;;;;6.75;3.42;;;;;;;;;;4918880;29;20229;-85
2024/01/27 06:35:31;;;;;;;10.00;4.35;;;;;;;;;;4933784;29;20199;-84
2024/01/27 06:38:00;;;;;;;7.53;4.05;;;;;;;;;;4909943;29;20257;-84
2024/01/27 06:40:29;;;;;;;6.53;4.43;;;;;;;;;;4908927;29;20226;-83
2024/01/27 06:42:57;;;;;;;10.85;3.65;;;;;;;;;;4918558;29;20241;-83
2024/01/27 06:45:26;;;;;;;8.90;4.57;;;;;;;;;;4901004;29;20244;-84
2024/01/27 06:47:54;;;;;;;13.02;4.75;;;;;;;;;;4921164;29;20213;-83
2024/01/27 06:50:23;;;;;;;8.90;4.10;;;;;;;;;;4914978;29;20234;-85
2024/01/27 06:52:52;;;;;;;5.47;3.90;;;;;;;;;;4916029;29;20205;-86
2024/01/27 06:55:20;;;;;;;7.53;4.80;;;;;;;;;;4919355;29;20213;-85
2024/01/27 06:57:49;;;;;;;20.27;9.25;;;;;;;;;;4917624;29;20280;-86
2024/01/27 07:00:18;;;;;;;11.48;7.57;;;;;;;;;;4908796;29;20262;-86
2024/01/27 07:02:46;;;;;;;17.13;7.15;;;;;;;;;;4907486;29;20236;-86
2024/01/27 07:05:14;;;;;;;10.85;4.72;;;;;;;;;;4899251;29;20253;-86
2024/01/27 07:07:42;;;;;;;4.35;3.92;;;;;;;;;;4921150;29;20208;-85
2024/01/27 07:10:11;;;;;;;5.20;4.43;;;;;;;;;;4912734;29;20201;-86
2024/01/27 07:12:39;;;;;;;31.30;6.15;;;;;;;;;;4918264;29;20206;-85
2024/01/27 07:15:09;;;;;;;11.13;4.38;;;;;;;;;;4931711;29;20658;-86
2024/01/27 07:17:37;;;;;;;13.30;5.45;;;;;;;;;;4914835;29;20218;-86
2024/01/27 07:20:06;;;;;;;11.20;4.45;;;;;;;;;;4911621;29;20229;-85
2024/01/27 07:22:35;;;;;;;6.85;4.15;;;;;;;;;;4917177;29;20261;-85
2024/01/27 07:25:03;;;;;;;12.15;7.50;;;;;;;;;;4925689;29;20229;-85
2024/01/27 07:27:34;;;;;;;8.23;5.90;;;;;;;;;;4921081;29;20249;-85
2024/01/27 07:30:02;;;;;;;10.35;5.93;;;;;;;;;;4895477;29;20271;-86
2024/01/27 07:32:32;;;;;;;7.45;5.95;;;;;;;;;;4899846;29;20222;-85
2024/01/27 07:35:00;;;;;;;29.27;12.32;;;;;;;;;;4925179;29;20220;-85
2024/01/27 07:37:29;;;;;;;12.60;9.65;;;;;;;;;;4924264;29;20276;-85
2024/01/27 07:39:57;;;;;;;13.73;5.53;;;;;;;;;;4926956;29;20209;-86
2024/01/27 07:42:26;;;;;;;11.23;6.07;;;;;;;;;;4934778;29;20226;-86
2024/01/27 07:44:54;;;;;;;11.68;5.68;;;;;;;;;;4916751;29;20230;-86
2024/01/27 07:47:23;;;;;;;16.80;5.78;;;;;;;;;;4915692;29;20215;-85
2024/01/27 07:49:53;;;;;;;5.97;4.20;;;;;;;;;;4923406;29;20237;-85
2024/01/27 07:52:22;;;;;;;8.82;5.35;;;;;;;;;;4915888;29;20233;-84
2024/01/27 07:54:50;;;;;;;14.73;6.97;;;;;;;;;;4896711;29;20242;-85
2024/01/27 07:57:18;;;;;;;11.60;6.25;;;;;;;;;;4915526;29;20289;-84
2024/01/27 07:59:47;;;;;;;8.20;4.65;;;;;;;;;;4914134;29;20278;-85
2024/01/27 08:02:15;;;;;;;10.15;5.45;;;;;;;;;;4896679;29;20302;-85
2024/01/27 08:04:43;;;;;;;12.15;4.82;;;;;;;;;;4916767;29;20883;-84
2024/01/27 08:07:14;;;;;;;16.50;5.50;;;;;;;;;;4934352;29;20222;-84
2024/01/27 08:09:42;;;;;;;19.02;6.05;;;;;;;;;;4905200;29;20209;-85
2024/01/27 08:12:11;;;;;;;6.05;4.18;;;;;;;;;;4907980;29;20254;-84
2024/01/27 08:14:39;;;;;;;17.48;9.50;;;;;;;;;;4901727;29;20220;-83
2024/01/27 08:17:09;;;;;;;12.05;6.28;;;;;;;;;;4924465;29;20206;-85
2024/01/27 08:19:37;;;;;;;9.07;5.55;;;;;;;;;;4921050;29;20201;-84
2024/01/27 08:22:05;;;;;;;7.25;5.28;;;;;;;;;;4919489;29;20213;-84
2024/01/27 08:24:35;;;;;;;10.45;5.55;;;;;;;;;;4905812;29;20221;-85
2024/01/27 08:27:03;;;;;;;8.00;5.30;;;;;;;;;;4919455;29;20226;-84
2024/01/27 08:29:31;;;;;;;11.02;5.70;;;;;;;;;;4898356;29;20229;-84
2024/01/27 08:31:59;;;;;;;14.85;5.90;;;;;;;;;;4928372;29;20201;-83
2024/01/27 08:34:27;;;;;;;7.10;5.38;;;;;;;;;;4931470;29;20212;-83
2024/01/27 08:36:58;;;;;;;11.13;5.63;;;;;;;;;;4928425;29;20260;-85
2024/01/27 08:39:26;;;;;;;8.90;5.82;;;;;;;;;;4928634;29;20225;-83
2024/01/27 08:41:55;;;;;;;15.13;7.40;;;;;;;;;;4923576;29;20206;-84
2024/01/27 08:44:24;;;;;;;8.63;5.80;;;;;;;;;;4927304;29;20220;-84
2024/01/27 08:46:52;;;;;;;18.73;6.03;;;;;;;;;;4913581;29;20256;-83
2024/01/27 08:49:20;;;;;;;7.93;5.28;;;;;;;;;;4916766;29;20261;-84
2024/01/27 08:51:50;;;;;;;12.43;7.32;;;;;;;;;;4916420;29;20210;-84
2024/01/27 08:54:18;;;;;;;17.00;6.65;;;;;;;;;;4907064;29;20289;-84
2024/01/27 08:56:46;;;;;;;11.68;5.38;;;;;;;;;;4910321;29;20261;-83
2024/01/27 08:59:15;;;;;;;12.88;5.22;;;;;;;;;;4908858;29;20304;-82
2024/01/27 09:01:43;;;;;;;19.38;6.07;;;;;;;;;;4916657;29;20289;-84
2024/01/27 09:04:11;;;;;;;14.73;4.45;;;;;;;;;;4921049;29;20260;-84
2024/01/27 09:06:39;;;;;;;14.98;4.75;;;;;;;;;;4912434;29;20273;-84
2024/01/27 09:09:08;;;;;;;13.07;4.95;;;;;;;;;;4909339;29;20290;-84
2024/01/27 09:11:37;;;;;;;7.32;5.20;;;;;;;;;;4924758;29;20218;-83
2024/01/27 09:14:07;;;;;;;13.88;5.90;;;;;;;;;;4910314;29;20250;-81
2024/01/27 09:16:36;;;;;;;6.50;5.20;;;;;;;;;;4908073;29;20265;-83
2024/01/27 09:19:05;;;;;;;12.65;5.65;;;;;;;;;;4911224;29;20369;-83
2024/01/27 09:21:33;;;;;;;7.00;4.68;;;;;;;;;;4918973;29;20269;-83
2024/01/27 09:24:02;;;;;;;10.82;4.28;;;;;;;;;;4894505;29;20255;-82
2024/01/27 09:26:30;;;;;;;5.65;3.72;;;;;;;;;;4899433;29;20406;-82
2024/01/27 09:28:59;;;;;;;6.82;3.75;;;;;;;;;;4908515;29;20288;-82
2024/01/27 09:31:28;;;;;;;7.28;4.78;;;;;;;;;;4899016;29;20302;-83
2024/01/27 09:33:57;;;;;;;6.57;3.45;;;;;;;;;;4915151;29;20311;-82
2024/01/27 09:36:26;;;;;;;4.50;3.70;;;;;;;;;;4908810;29;20277;-82
2024/01/27 09:38:54;;;;;;;7.97;4.22;;;;;;;;;;4908570;29;20717;-83
2024/01/27 09:41:25;;;;;;;12.50;4.45;;;;;;;;;;4913975;29;20272;-84
2024/01/27 09:43:54;;;;;;;6.55;4.30;;;;;;;;;;4915389;29;20230;-84
2024/01/27 09:46:22;;;;;;;13.32;5.88;;;;;;;;;;4912719;29;20241;-83
2024/01/27 09:48:51;;;;;;;11.38;5.28;;;;;;;;;;4908822;29;20212;-84
2024/01/27 09:51:22;;;;;;;8.55;5.45;;;;;;;;;;4921776;29;20232;-84
2024/01/27 09:53:51;;;;;;;9.68;4.18;;;;;;;;;;4922790;29;20209;-84
2024/01/27 09:56:20;;;;;;;10.98;5.07;;;;;;;;;;4910733;29;20206;-84
2024/01/27 09:58:49;;;;;;;12.60;5.90;;;;;;;;;;4912428;29;20256;-84
2024/01/27 10:01:18;;;;;;;11.75;4.82;;;;;;;;;;4901210;29;20272;-84
2024/01/27 10:03:48;;;;;;;14.90;5.05;;;;;;;;;;4922477;29;20244;-84
2024/01/27 10:06:19;;;;;;;11.80;4.57;;;;;;;;;;4916281;29;20233;-86
2024/01/27 10:08:55;;;;;;;9.60;4.22;;;;;;;;;;4925236;29;20292;-86
2024/01/27 10:11:25;;;;;;;5.05;3.72;;;;;;;;;;5128803;23;20310;-85
2024/01/27 10:13:57;;;;;;;11.98;4.95;;;;;;;;;;4931744;29;20217;-84
2024/01/27 10:16:26;;;;;;;13.48;5.22;;;;;;;;;;4902671;29;20229;-85
2024/01/27 10:19:04;;;;;;;9.35;5.20;;;;;;;;;;4902273;29;20250;-84
2024/01/27 10:24:36;;;;;;;11.77;5.93;;;;;;;;;;5145164;23;20665;-85
2024/01/27 10:27:05;;;;;;;9.90;4.40;;;;;;;;;;4928889;28;20245;-86
2024/01/27 10:29:34;;;;;;;18.92;8.05;;;;;;;;;;4939947;29;20204;-86
2024/01/27 10:32:10;;;;;;;15.52;5.03;;;;;;;;;;4953837;29;20231;-86
2024/01/27 10:34:38;;;;;;;13.45;5.15;;;;;;;;;;4954940;29;20240;-85
2024/01/27 10:37:06;;;;;;;6.85;4.35;;;;;;;;;;4937924;29;20241;-85
2024/01/27 10:39:36;;;;;;;5.07;3.50;;;;;;;;;;4949791;29;20248;-86
2024/01/27 10:42:04;;;;;;;16.30;4.32;;;;;;;;;;4948706;29;20272;-86
2024/01/27 10:44:33;;;;;;;14.80;4.50;;;;;;;;;;4947796;29;20272;-85
2024/01/27 10:47:03;;;;;;;16.10;4.40;;;;;;;;;;4927209;29;20276;-85
2024/01/27 10:49:33;;;;;;;8.48;4.47;;;;;;;;;;4930003;29;20282;-84
2024/01/27 10:52:05;;;;;;;7.60;5.30;;;;;;;;;;4947595;29;20236;-84
2024/01/27 10:54:35;;;;;;;7.38;3.85;;;;;;;;;;4941844;29;20688;-86
2024/01/27 10:57:05;;;;;;;6.75;3.63;;;;;;;;;;4953877;28;20271;-85
2024/01/27 10:59:33;;;;;;;12.40;4.25;;;;;;;;;;4949310;29;20227;-84
2024/01/27 11:02:02;;;;;;;8.75;3.53;;;;;;;;;;4958935;29;20719;-83
2024/01/27 11:04:35;;;;;;;16.77;3.80;;;;;;;;;;4946168;29;20693;-85
2024/01/27 11:07:03;;;;;;;6.25;4.15;;;;;;;;;;4924926;29;20272;-85
2024/01/27 11:09:32;;;;;;;7.07;5.20;;;;;;;;;;4921540;29;20210;-85
2024/01/27 11:12:01;;;;;;;15.40;7.40;;;;;;;;;;4924212;29;20201;-84
2024/01/27 11:14:31;;;;;;;9.40;8.67;;;;;;;;;;4910626;29;20213;-85
2024/01/27 11:16:59;;;;;;;10.73;9.70;;;;;;;;;;4928183;29;20679;-85
2024/01/27 11:19:28;;;;;;;10.40;9.40;;;;;;;;;;4938471;29;20656;-83
2024/01/27 11:22:03;;;;;;;10.63;9.67;;;;;;;;;;4940338;29;20676;-82
2024/01/27 11:24:31;;;;;;;12.80;11.80;;;;;;;;;;4918774;29;21220;-81
2024/01/27 11:27:03;;;;;;;12.97;11.87;;;;;;;;;;4914107;29;20732;-84
2024/01/27 11:29:34;;;;;;;13.80;12.10;;;;;;;;;;4925918;29;20690;-84
2024/01/27 11:32:03;;;;;;;13.93;12.53;;;;;;;;;;4943377;29;20673;-82
2024/01/27 11:34:42;;;;;;;22.57;12.60;;;;;;;;;;4938118;29;20766;-81
2024/01/27 11:37:14;;;;;;;12.83;11.73;;;;;;;;;;4926182;29;20692;-83
2024/01/27 11:39:42;;;;;;;14.63;13.03;;;;;;;;;;4893610;29;21102;-80
2024/01/27 11:42:12;;;;;;;15.03;12.77;;;;;;;;;;4926710;29;20771;-82
2024/01/27 11:44:43;;;;;;;16.03;12.70;;;;;;;;;;4914069;29;20716;-83
2024/01/27 11:47:16;;;;;;;13.70;12.80;;;;;;;;;;4910707;29;20693;-83
2024/01/27 11:49:44;;;;;;;14.73;13.33;;;;;;;;;;4928127;29;21043;-83
2024/01/27 11:52:15;;;;;;;13.33;12.33;;;;;;;;;;4907900;29;20712;-83
2024/01/27 11:54:43;;;;;;;15.83;13.53;;;;;;;;;;4911233;29;20763;-83
2024/01/27 11:57:12;;;;;;;14.07;12.70;;;;;;;;;;4905809;29;20748;-83
2024/01/27 11:59:43;;;;;;;14.40;12.80;;;;;;;;;;4899161;29;20751;-84
2024/01/27 12:02:11;;;;;;;14.97;13.67;;;;;;;;;;4899217;29;20772;-84
2024/01/27 12:04:39;;;;;;;13.13;12.23;;;;;;;;;;4930997;29;20751;-83
2024/01/27 12:07:09;;;;;;;14.37;13.27;;;;;;;;;;4919342;29;20713;-83
2024/01/27 12:09:37;;;;;;;14.03;13.10;;;;;;;;;;4930811;29;20695;-83
2024/01/27 12:12:06;;;;;;;15.20;13.80;;;;;;;;;;4944168;29;21069;-81
2024/01/27 12:14:40;;;;;;;15.83;14.20;;;;;;;;;;4899728;29;20708;-82
2024/01/27 12:17:14;;;;;;;15.10;13.90;;;;;;;;;;4917415;29;20685;-83
2024/01/27 12:19:47;;;;;;;14.23;12.83;;;;;;;;;;4937439;29;20707;-83
2024/01/27 12:22:23;;;;;;;15.83;13.77;;;;;;;;;;4928498;29;20673;-83
2024/01/27 12:24:51;;;;;;;15.03;13.50;;;;;;;;;;4886102;29;1070251;-83
2024/01/27 12:27:20;;;;;;;14.50;13.50;;;;;;;;;;4910308;29;20688;-83
2024/01/27 12:29:49;;;;;;;14.93;13.50;;;;;;;;;;4916533;29;20712;-83
2024/01/27 12:32:19;;;;;;;15.17;13.70;;;;;;;;;;4906709;29;20617;-84
2024/01/27 12:34:49;;;;;;;15.00;13.80;;;;;;;;;;4943835;29;21246;-83
2024/01/27 12:37:18;;;;;;;14.87;13.70;;;;;;;;;;4927950;29;20652;-83
2024/01/27 12:39:46;;;;;;;17.17;14.27;;;;;;;;;;4925593;29;21282;-83
2024/01/27 12:42:14;;;;;;;16.97;15.57;;;;;;;;;;4910657;29;20641;-84
2024/01/27 12:44:42;;;;;;;19.43;17.40;;;;;;;;;;4895453;29;20622;-83
2024/01/27 12:47:11;;;;;;;19.83;16.00;;;;;;;;;;4927293;29;20719;-85
2024/01/27 12:49:41;;;;;;;19.50;17.50;;;;;;;;;;4924270;29;20623;-83
2024/01/27 12:52:09;;;;;;;18.23;16.83;;;;;;;;;;4901445;29;20721;-83
2024/01/27 12:54:38;;;;;;;17.57;16.33;;;;;;;;;;4936484;29;20620;-84
2024/01/27 12:57:07;;;;;;;18.87;16.93;;;;;;;;;;4920783;29;20707;-84
2024/01/27 12:59:35;;;;;;;18.70;16.90;;;;;;;;;;4916568;29;20686;-85
2024/01/27 13:02:03;;;;;;;17.67;16.27;;;;;;;;;;4913523;29;20700;-84
2024/01/27 13:04:31;;;;;;;16.17;15.00;;;;;;;;;;4918518;29;20665;-86
2024/01/27 13:07:02;;;;;;;17.37;15.93;;;;;;;;;;4913906;29;20962;-83
2024/01/27 13:09:30;;;;;;;16.90;15.73;;;;;;;;;;4893325;29;20716;-84
2024/01/27 13:11:59;;;;;;;17.43;15.70;;;;;;;;;;4908356;29;20708;-83
2024/01/27 13:14:27;;;;;;;19.03;17.20;;;;;;;;;;4925490;29;21173;-83
2024/01/27 13:16:56;;;;;;;16.87;15.63;;;;;;;;;;4920846;29;20622;-84
2024/01/27 13:19:24;;;;;;;17.63;16.10;;;;;;;;;;4930415;29;20677;-83
2024/01/27 13:21:52;;;;;;;16.57;15.47;;;;;;;;;;4927516;29;20612;-84
2024/01/27 13:24:22;;;;;;;18.63;16.70;;;;;;;;;;4914892;29;20657;-83
2024/01/27 13:26:51;;;;;;;16.13;14.80;;;;;;;;;;4904633;29;20649;-83
2024/01/27 13:29:20;;;;;;;16.10;15.00;;;;;;;;;;4917167;29;20719;-85
2024/01/27 13:31:48;;;;;;;16.87;15.60;;;;;;;;;;4921976;29;20633;-82
2024/01/27 13:34:16;;;;;;;17.00;15.80;;;;;;;;;;4921608;29;20693;-84
2024/01/27 13:36:44;;;;;;;17.40;16.13;;;;;;;;;;4901199;29;20674;-83
2024/01/27 13:39:13;;;;;;;16.27;14.77;;;;;;;;;;4904680;29;20715;-83
2024/01/27 13:41:43;;;;;;;17.10;15.30;;;;;;;;;;4930215;29;20712;-82
2024/01/27 13:44:11;;;;;;;16.97;15.57;;;;;;;;;;4918652;29;20625;-82
2024/01/27 13:46:39;;;;;;;17.90;15.73;;;;;;;;;;4919632;29;20696;-83
2024/01/27 13:49:07;;;;;;;16.03;14.80;;;;;;;;;;4916147;29;20684;-82
2024/01/27 13:51:36;;;;;;;16.80;15.60;;;;;;;;;;4892262;29;20713;-82
2024/01/27 13:54:09;;;;;;;16.20;14.97;;;;;;;;;;4918224;29;21259;-81
2024/01/27 13:56:38;;;;;;;16.43;14.97;;;;;;;;;;4881222;29;20776;-81
2024/01/27 13:59:08;;;;;;;15.93;14.60;;;;;;;;;;4912073;29;20680;-82
2024/01/27 14:01:36;;;;;;;15.87;14.67;;;;;;;;;;4914804;29;20670;-82
2024/01/27 14:04:06;;;;;;;15.25;14.10;;;;;;;;;;4896385;29;20757;-82
2024/01/27 14:06:35;;;;;;;15.45;14.35;;;;;;;;;;4900179;29;20213;-82
2024/01/27 14:09:04;;;;;;;15.27;13.98;;;;;;;;;;4917707;29;20256;-81
2024/01/27 14:11:32;;;;;;;18.83;14.57;;;;;;;;;;4923034;29;20288;-82
2024/01/27 14:14:01;;;;;;;15.87;14.27;;;;;;;;;;4935840;29;20676;-82
2024/01/27 14:16:31;;;;;;;16.83;14.13;;;;;;;;;;4891191;29;20719;-81
2024/01/27 14:19:00;;;;;;;15.00;13.77;;;;;;;;;;4922302;29;20621;-81
2024/01/27 14:21:28;;;;;;;15.10;13.90;;;;;;;;;;4926945;29;20731;-81
2024/01/27 14:24:02;;;;;;;16.13;14.70;;;;;;;;;;4929877;29;20736;-82
2024/01/27 14:26:31;;;;;;;15.30;14.30;;;;;;;;;;4926388;29;20670;-82
2024/01/27 14:28:59;;;;;;;16.53;15.03;;;;;;;;;;4923033;29;20712;-81
2024/01/27 14:31:30;;;;;;;15.93;14.93;;;;;;;;;;4927181;29;20701;-82
2024/01/27 14:33:59;;;;;;;15.90;14.80;;;;;;;;;;4906153;29;20678;-82
2024/01/27 14:36:28;;;;;;;17.50;15.80;;;;;;;;;;4910319;29;21054;-82
2024/01/27 14:38:56;;;;;;;17.03;15.67;;;;;;;;;;4921418;29;21061;-82
2024/01/27 14:41:24;;;;;;;16.53;15.10;;;;;;;;;;4927936;29;20696;-81
2024/01/27 14:43:53;;;;;;;22.60;15.10;;;;;;;;;;4933584;29;20808;-82
2024/01/27 14:46:21;;;;;;;15.43;14.33;;;;;;;;;;4916802;29;20761;-82
2024/01/27 14:48:49;;;;;;;16.13;14.93;;;;;;;;;;4930906;29;20703;-81
2024/01/27 14:51:19;;;;;;;16.47;15.23;;;;;;;;;;4929445;29;21309;-81
2024/01/27 14:53:47;;;;;;;14.97;14.00;;;;;;;;;;4936760;29;20712;-81
2024/01/27 14:56:16;;;;;;;16.13;14.63;;;;;;;;;;4910461;29;20745;-81
2024/01/27 14:58:46;;;;;;;16.33;15.03;;;;;;;;;;4930417;29;20725;-80
2024/01/27 15:01:15;;;;;;;16.70;15.30;;;;;;;;;;4908734;29;21077;-80
2024/01/27 15:03:43;;;;;;;15.93;14.50;;;;;;;;;;4907808;29;20651;-82
2024/01/27 15:06:11;;;;;;;16.17;14.57;;;;;;;;;;4906747;29;20680;-82
2024/01/27 15:08:44;;;;;;;16.80;15.40;;;;;;;;;;4919410;29;20708;-81
2024/01/27 15:11:12;;;;;;;16.17;14.97;;;;;;;;;;4925554;29;21020;-81
2024/01/27 15:13:40;;;;;;;21.33;19.07;;;;;;;;;;4939460;29;20716;-82
2024/01/27 15:16:09;;;;;;;17.47;15.93;;;;;;;;;;4916699;29;20703;-82
2024/01/27 17:02:40;;;;;;;35.30;19.48;;;;;;;;;;5299438;23;20752;-83
2024/01/27 17:41:03;;;;;;;11.05;7.20;;;;;;;;;;5740451;23;20669;-82
2024/01/27 17:43:33;;;;;;;8.80;7.78;;;;;;;;;;4939831;29;20271;-83
2024/01/27 17:46:01;;;;;;;11.80;7.13;;;;;;;;;;4924941;29;20251;-83
2024/01/27 17:48:31;;;;;;;15.23;9.95;;;;;;;;;;4919981;29;20216;-82
2024/01/27 17:50:59;;;;;;;15.30;8.40;;;;;;;;;;4930503;29;20260;-83
2024/01/27 17:53:27;;;;;;;15.55;9.32;;;;;;;;;;4935775;29;20284;-82
2024/01/27 17:55:56;;;;;;;16.75;9.13;;;;;;;;;;4913661;29;20252;-82
2024/01/27 17:58:25;;;;;;;11.55;8.52;;;;;;;;;;4936081;29;20251;-83
2024/01/27 18:00:54;;;;;;;10.88;8.73;;;;;;;;;;4917671;29;20209;-82
2024/01/27 18:03:22;;;;;;;13.00;8.52;;;;;;;;;;4926243;29;20280;-82
2024/01/27 18:05:51;;;;;;;17.85;11.73;;;;;;;;;;4927284;29;20290;-81
2024/01/27 18:08:20;;;;;;;12.52;10.25;;;;;;;;;;4932696;29;20205;-83
2024/01/27 18:10:48;;;;;;;12.43;10.77;;;;;;;;;;4938923;29;20363;-82
2024/01/27 18:13:17;;;;;;;15.05;10.10;;;;;;;;;;4906213;29;20285;-81
2024/01/27 18:15:46;;;;;;;10.95;8.35;;;;;;;;;;4911699;29;20309;-82
2024/01/27 18:18:15;;;;;;;10.10;8.88;;;;;;;;;;4899994;29;20232;-83
2024/01/27 18:20:43;;;;;;;9.73;8.75;;;;;;;;;;4926395;29;20249;-83
2024/01/27 18:23:11;;;;;;;11.73;8.35;;;;;;;;;;4923437;29;20283;-82
2024/01/27 18:25:40;;;;;;;10.98;8.32;;;;;;;;;;4942131;29;20732;-84
2024/01/27 18:28:08;;;;;;;12.93;7.55;;;;;;;;;;4928180;29;20254;-83
2024/01/27 18:30:37;;;;;;;15.75;7.15;;;;;;;;;;4929005;29;20716;-81
2024/01/27 18:33:07;;;;;;;13.77;7.70;;;;;;;;;;4906881;29;20256;-82
2024/01/27 18:35:35;;;;;;;17.45;10.05;;;;;;;;;;4947887;29;20264;-82
2024/01/27 18:38:04;;;;;;;20.00;11.80;;;;;;;;;;4906213;29;20284;-80
2024/01/27 18:40:35;;;;;;;17.00;11.70;;;;;;;;;;4899478;29;20833;-82
2024/01/27 19:26:32;;;;;;;18.13;8.75;;;;;;;;;;5650064;23;21181;-85
2024/01/27 19:38:00;;;;;;;16.38;9.45;;;;;;;;;;5959042;23;20189;-82
2024/01/27 19:43:25;;;;;;;25.95;15.75;;;;;;;;;;4999801;23;20213;-85
2024/01/27 19:46:01;;;;;;;29.73;17.38;;;;;;;;;;5660292;23;20232;-85
2024/01/27 19:48:30;;;;;;;24.70;14.43;;;;;;;;;;4920184;29;20297;-85
2024/01/27 20:08:56;;;;;;;14.50;8.02;;;;;;;;;;5328695;23;20225;-84
2024/01/27 21:36:06;;;;;;;10.05;6.55;;;;;;;;;;4990984;23;20240;-85
2024/01/27 21:38:35;;;;;;;15.55;7.03;;;;;;;;;;4928788;29;20224;-84
2024/01/27 21:41:04;;;;;;;21.48;7.80;;;;;;;;;;4901033;29;20289;-83
2024/01/27 21:43:35;;;;;;;12.23;5.97;;;;;;;;;;4933968;29;20232;-84